Time;durP1;ratioP1;P1;durP2;ratioP2;P2;SDS_P1;SDS_P2;PMS_P1;PMS_P2;Temp;Humidity;BMP_temperature;BMP_pressure;BME280_temperature;BME280_humidity;BME280_pressure;Samples;Min_cycle;Max_cycle;Signal;HPM_P1;HPM_P2
2021/09/17 00:00:53;;;;;;;7.32;5.90;;;;;;;21.19;54.00;101852.94;4747982;30;20040;-79
2021/09/17 00:03:19;;;;;;;6.57;5.68;;;;;;;21.17;54.17;101855.59;4747557;30;20036;-78
2021/09/17 00:05:45;;;;;;;6.80;5.97;;;;;;;21.17;54.09;101856.44;4762568;30;20040;-79
2021/09/17 00:08:10;;;;;;;6.22;5.50;;;;;;;21.21;54.14;101844.22;4779114;30;20067;-78
2021/09/17 00:10:36;;;;;;;7.53;6.07;;;;;;;21.21;54.17;101853.78;4747806;30;20483;-79
2021/09/17 00:13:02;;;;;;;6.93;6.18;;;;;;;21.21;54.32;101845.94;4748798;30;20073;-79
2021/09/17 00:15:27;;;;;;;6.30;5.63;;;;;;;21.21;54.20;101840.69;4761772;30;20043;-79
2021/09/17 00:17:53;;;;;;;7.75;5.90;;;;;;;21.25;54.22;101845.94;4756390;30;20036;-78
2021/09/17 00:20:19;;;;;;;6.65;5.95;;;;;;;21.22;54.11;101847.69;4755069;30;20043;-79
2021/09/17 00:22:45;;;;;;;8.55;6.10;;;;;;;21.24;54.10;101836.31;4740375;30;20101;-78
2021/09/17 00:25:11;;;;;;;8.93;6.38;;;;;;;21.24;54.23;101841.56;4756060;30;20043;-79
2021/09/17 00:27:37;;;;;;;6.97;6.28;;;;;;;21.24;54.25;101835.47;4757200;30;20039;-79
2021/09/17 00:30:04;;;;;;;8.80;6.55;;;;;;;21.21;54.40;101838.97;4759994;30;20059;-78
2021/09/17 00:32:30;;;;;;;6.95;6.20;;;;;;;21.18;54.38;101839.00;4776742;30;20085;-78
2021/09/17 00:34:56;;;;;;;6.68;5.90;;;;;;;21.17;54.34;101830.28;4760338;30;20039;-78
2021/09/17 00:37:21;;;;;;;7.60;6.63;;;;;;;21.19;54.50;101826.75;4745974;30;20059;-79
2021/09/17 00:39:47;;;;;;;7.45;6.60;;;;;;;21.21;54.40;101828.50;4745929;30;20434;-79
2021/09/17 00:42:12;;;;;;;7.85;6.35;;;;;;;21.19;54.16;101825.03;4762852;30;20036;-79
2021/09/17 00:44:38;;;;;;;10.57;6.07;;;;;;;21.20;54.33;101824.13;4780412;30;20039;-79
2021/09/17 00:47:04;;;;;;;7.53;6.40;;;;;;;21.20;54.54;101828.50;4732171;30;20028;-79
2021/09/17 00:49:29;;;;;;;7.43;6.43;;;;;;;21.19;54.55;101825.03;4762236;30;20484;-78
2021/09/17 00:51:55;;;;;;;8.10;6.60;;;;;;;21.21;54.55;101819.75;4734631;30;20036;-77
2021/09/17 00:54:21;;;;;;;7.15;5.85;;;;;;;21.22;54.47;101825.00;4748908;30;20035;-79
2021/09/17 00:56:47;;;;;;;7.68;6.55;;;;;;;21.20;54.51;101824.13;4748884;30;20043;-79
2021/09/17 00:59:13;;;;;;;7.97;6.82;;;;;;;21.20;54.48;101821.53;4758646;30;20036;-79
2021/09/17 01:01:39;;;;;;;8.05;6.72;;;;;;;21.20;54.45;101821.53;4774620;30;20043;-78
2021/09/17 01:04:08;;;;;;;7.18;6.45;;;;;;;21.22;54.53;101817.13;4760857;30;20035;-77
2021/09/17 01:06:35;;;;;;;8.27;7.18;;;;;;;21.21;54.52;101815.41;4744661;30;20117;-77
2021/09/17 01:09:02;;;;;;;7.85;6.32;;;;;;;21.23;54.49;101808.44;4743309;30;20066;-78
2021/09/17 01:11:28;;;;;;;7.70;5.68;;;;;;;21.25;54.47;101806.66;4743248;30;20040;-77
2021/09/17 01:13:54;;;;;;;8.75;6.97;;;;;;;21.21;54.47;101797.09;4729791;30;20393;-78
2021/09/17 01:16:19;;;;;;;8.27;6.60;;;;;;;21.21;54.65;101802.34;4744534;30;20040;-78
2021/09/17 01:18:45;;;;;;;7.97;7.10;;;;;;;21.23;54.57;101797.06;4744011;30;20036;-78
2021/09/17 01:21:10;;;;;;;9.15;7.40;;;;;;;21.20;54.49;101789.25;4760524;30;20047;-79
2021/09/17 01:23:36;;;;;;;7.88;6.82;;;;;;;21.21;54.55;101785.72;4747136;30;20070;-79
2021/09/17 01:26:02;;;;;;;8.80;6.90;;;;;;;21.21;54.74;101785.72;4762019;30;20402;-78
2021/09/17 01:28:30;;;;;;;7.50;6.72;;;;;;;21.19;54.58;101777.91;4745154;30;20040;-79
2021/09/17 01:30:56;;;;;;;8.55;7.20;;;;;;;21.20;54.75;101782.25;4760803;30;20034;-78
2021/09/17 01:33:22;;;;;;;8.20;6.93;;;;;;;21.22;54.70;101779.63;4762096;30;20039;-78
2021/09/17 01:35:56;;;;;;;9.07;7.18;;;;;;;21.24;54.55;101772.63;4761802;30;20131;-78
2021/09/17 01:38:21;;;;;;;8.80;7.20;;;;;;;21.22;54.54;101775.25;4760154;30;20430;-78
2021/09/17 01:40:47;;;;;;;9.35;6.63;;;;;;;21.22;54.83;101766.53;4755776;30;20039;-78
2021/09/17 01:43:12;;;;;;;7.97;6.88;;;;;;;21.22;54.69;101766.53;4772620;30;20039;-79
2021/09/17 01:45:38;;;;;;;9.07;6.75;;;;;;;21.23;54.77;101763.91;4756957;30;20047;-79
2021/09/17 01:48:04;;;;;;;9.40;6.90;;;;;;;21.25;54.69;101759.53;4742128;30;20040;-78
2021/09/17 01:50:29;;;;;;;8.85;7.25;;;;;;;21.25;54.87;101762.16;4742440;30;20043;-78
2021/09/17 01:52:55;;;;;;;8.45;7.05;;;;;;;21.24;54.77;101759.53;4757053;30;20051;-79
2021/09/17 01:55:23;;;;;;;8.55;7.18;;;;;;;21.25;54.78;101758.66;4775631;30;20048;-78
2021/09/17 01:57:50;;;;;;;7.60;6.57;;;;;;;21.22;54.85;101758.69;4746269;30;20043;-79
2021/09/17 02:00:15;;;;;;;8.40;6.75;;;;;;;21.23;54.80;101749.94;4761867;30;20024;-76
2021/09/17 02:02:41;;;;;;;8.32;7.32;;;;;;;21.23;54.79;101748.22;4778476;30;20035;-78
2021/09/17 02:05:07;;;;;;;8.38;7.57;;;;;;;21.23;54.86;101747.31;4777839;30;20116;-78
2021/09/17 02:07:33;;;;;;;10.52;8.02;;;;;;;21.21;54.74;101744.75;4748087;30;20047;-76
2021/09/17 02:09:59;;;;;;;7.80;6.93;;;;;;;21.22;54.69;101741.22;4747097;30;20043;-77
2021/09/17 02:12:25;;;;;;;9.82;7.43;;;;;;;21.24;54.92;101743.84;4761655;30;20040;-79
2021/09/17 02:14:51;;;;;;;8.60;7.70;;;;;;;21.22;54.94;101740.38;4748515;30;20035;-76
2021/09/17 02:17:17;;;;;;;8.98;7.97;;;;;;;21.19;54.85;101733.41;4765327;30;20051;-77
2021/09/17 02:19:43;;;;;;;10.18;7.90;;;;;;;21.20;54.97;101740.38;4728838;30;20070;-78
2021/09/17 02:22:08;;;;;;;9.40;7.55;;;;;;;21.22;55.06;101740.38;4727527;30;20028;-79
2021/09/17 02:24:34;;;;;;;9.48;7.72;;;;;;;21.21;55.04;101734.28;4744382;30;20036;-79
2021/09/17 02:27:00;;;;;;;9.55;8.55;;;;;;;21.19;54.98;101730.81;4744461;30;20036;-79
2021/09/17 02:29:25;;;;;;;10.82;7.90;;;;;;;21.21;55.10;101738.63;4760544;30;20157;-79
2021/09/17 02:31:51;;;;;;;8.98;7.72;;;;;;;21.25;54.98;101735.09;4760550;30;20067;-78
2021/09/17 02:34:16;;;;;;;9.63;8.20;;;;;;;21.22;55.15;101729.91;4762395;30;20038;-79
2021/09/17 02:36:42;;;;;;;9.50;8.10;;;;;;;21.21;54.77;101729.03;4762529;30;20101;-78
2021/09/17 02:39:09;;;;;;;9.80;7.55;;;;;;;21.27;54.82;101722.84;4762566;30;20174;-79
2021/09/17 02:41:34;;;;;;;8.70;7.78;;;;;;;21.23;54.87;101724.66;4762568;30;20075;-78
2021/09/17 02:44:01;;;;;;;9.90;8.45;;;;;;;21.22;54.87;101722.03;4748608;30;20044;-79
2021/09/17 02:46:26;;;;;;;9.45;8.27;;;;;;;21.23;54.88;101715.91;4758953;30;20126;-79
2021/09/17 02:48:52;;;;;;;10.55;8.65;;;;;;;21.23;54.94;101719.41;4780623;30;20063;-79
2021/09/17 02:51:17;;;;;;;10.80;8.88;;;;;;;21.22;55.09;101712.44;4730026;30;20050;-79
2021/09/17 02:53:43;;;;;;;10.77;8.57;;;;;;;21.23;54.93;101710.69;4728753;30;20059;-79
2021/09/17 02:56:08;;;;;;;9.55;8.00;;;;;;;21.22;54.99;101701.97;4745841;30;20036;-79
2021/09/17 02:58:36;;;;;;;11.20;8.40;;;;;;;21.24;54.83;101702.81;4718089;30;20131;-79
2021/09/17 03:01:02;;;;;;;10.60;8.57;;;;;;;21.25;54.66;101703.69;4752670;30;20035;-79
2021/09/17 03:03:27;;;;;;;9.00;8.05;;;;;;;21.24;54.80;101694.09;4771548;30;20565;-79
2021/09/17 03:05:53;;;;;;;10.55;9.35;;;;;;;21.24;54.91;101694.97;4740709;30;20078;-78
2021/09/17 03:08:18;;;;;;;10.40;8.45;;;;;;;21.24;54.83;101694.09;4771760;30;20028;-79
2021/09/17 03:10:44;;;;;;;11.05;9.20;;;;;;;21.24;55.05;101694.09;4742297;30;20379;-79
2021/09/17 03:13:09;;;;;;;12.43;9.40;;;;;;;21.24;54.98;101688.88;4760493;30;20040;-79
2021/09/17 03:15:35;;;;;;;10.57;9.07;;;;;;;21.21;55.01;101686.25;4747504;30;20032;-79
2021/09/17 03:18:01;;;;;;;9.95;8.60;;;;;;;21.23;54.69;101682.78;4761199;30;20032;-79
2021/09/17 03:20:26;;;;;;;10.40;8.95;;;;;;;21.22;55.08;101685.41;4744112;30;20039;-79
2021/09/17 03:22:52;;;;;;;12.43;10.07;;;;;;;21.23;54.97;101687.13;4759916;30;20059;-79
2021/09/17 03:25:17;;;;;;;10.73;9.48;;;;;;;21.22;54.91;101685.41;4747442;30;20062;-79
2021/09/17 03:27:43;;;;;;;12.27;9.13;;;;;;;21.24;54.80;101681.00;4748593;30;20044;-77
2021/09/17 03:30:10;;;;;;;11.05;9.18;;;;;;;21.23;54.88;101684.50;4763385;30;20035;-77
2021/09/17 03:32:35;;;;;;;10.77;9.35;;;;;;;21.24;54.74;101681.88;4763184;30;20089;-79
2021/09/17 03:35:01;;;;;;;10.88;9.70;;;;;;;21.21;55.03;101681.03;4764189;30;20067;-79
2021/09/17 03:37:27;;;;;;;10.50;9.40;;;;;;;21.22;55.06;101672.31;4762959;30;20056;-79
2021/09/17 03:39:52;;;;;;;11.18;9.77;;;;;;;21.18;55.09;101676.69;4762354;30;20379;-79
2021/09/17 03:42:18;;;;;;;10.60;9.50;;;;;;;21.20;55.04;101672.31;4726988;30;20032;-79
2021/09/17 03:44:43;;;;;;;11.38;9.32;;;;;;;21.20;55.10;101667.09;4740007;30;20045;-79
2021/09/17 03:47:09;;;;;;;11.68;9.75;;;;;;;21.22;54.98;101674.94;4738335;30;20047;-79
2021/09/17 03:49:34;;;;;;;11.93;9.20;;;;;;;21.21;54.96;101663.59;4768382;30;20038;-79
2021/09/17 03:52:00;;;;;;;11.85;9.68;;;;;;;21.19;55.20;101665.38;4741531;30;20062;-78
2021/09/17 03:54:28;;;;;;;11.10;9.80;;;;;;;21.17;55.07;101665.38;4758056;30;20093;-78
2021/09/17 03:56:56;;;;;;;11.73;9.80;;;;;;;21.17;55.29;101667.13;4758193;30;20070;-79
2021/09/17 03:59:23;;;;;;;11.95;10.05;;;;;;;21.19;55.03;101661.84;4774278;30;20023;-79
2021/09/17 04:01:49;;;;;;;13.05;10.73;;;;;;;21.18;55.11;101658.38;4758894;30;20036;-77
2021/09/17 04:04:14;;;;;;;11.05;9.43;;;;;;;21.16;55.34;101662.75;4776527;30;20391;-78
2021/09/17 04:06:42;;;;;;;12.73;10.40;;;;;;;21.17;55.04;101660.13;4759779;30;20039;-78
2021/09/17 04:09:09;;;;;;;11.40;10.20;;;;;;;21.15;55.36;101658.44;4759465;30;20035;-78
2021/09/17 04:11:35;;;;;;;13.07;10.45;;;;;;;21.20;55.18;101661.00;4773531;30;20036;-78
2021/09/17 04:14:00;;;;;;;13.20;10.68;;;;;;;21.19;55.25;101662.75;4728623;30;20566;-78
2021/09/17 04:16:26;;;;;;;13.30;10.10;;;;;;;21.23;55.10;101663.56;4758009;30;20503;-79
2021/09/17 04:18:51;;;;;;;12.75;9.93;;;;;;;21.22;55.09;101662.69;4743232;30;20035;-78
2021/09/17 04:21:17;;;;;;;13.20;9.82;;;;;;;21.25;54.87;101661.78;4728399;30;20039;-79
2021/09/17 04:23:43;;;;;;;11.88;10.15;;;;;;;21.22;55.13;101659.22;4740820;30;20055;-79
2021/09/17 04:26:08;;;;;;;13.02;9.70;;;;;;;21.25;54.90;101664.41;4771719;30;20498;-80
2021/09/17 04:28:34;;;;;;;11.50;9.95;;;;;;;21.22;55.09;101653.97;4738718;30;20036;-80
2021/09/17 04:30:59;;;;;;;13.25;10.27;;;;;;;21.24;55.08;101662.69;4739333;30;20048;-79
2021/09/17 04:33:25;;;;;;;12.23;10.38;;;;;;;21.25;54.89;101667.91;4736141;30;20182;-79
2021/09/17 04:35:50;;;;;;;14.65;11.27;;;;;;;21.26;54.73;101660.94;4744032;30;20055;-79
2021/09/17 04:38:16;;;;;;;13.85;10.52;;;;;;;21.22;55.01;101662.69;4742792;30;20040;-79
2021/09/17 04:40:42;;;;;;;13.73;11.13;;;;;;;21.19;55.25;101665.38;4757672;30;20043;-80
2021/09/17 04:43:08;;;;;;;15.23;12.15;;;;;;;21.22;55.21;101657.47;4729046;30;20036;-80
2021/09/17 04:45:33;;;;;;;13.40;11.20;;;;;;;21.22;54.98;101662.69;4758777;30;20387;-79
2021/09/17 04:48:07;;;;;;;11.25;9.80;;;;;;;21.25;54.92;101661.78;4743605;30;20044;-79
2021/09/17 04:50:32;;;;;;;12.73;10.52;;;;;;;21.21;55.09;101666.22;4757172;30;20036;-80
2021/09/17 04:52:58;;;;;;;13.70;10.82;;;;;;;21.21;55.02;101663.59;4772783;30;20089;-78
2021/09/17 04:55:23;;;;;;;12.73;10.50;;;;;;;21.21;55.10;101667.94;4728661;30;20130;-80
2021/09/17 04:57:49;;;;;;;13.32;11.00;;;;;;;21.15;55.20;101667.13;4742848;30;20143;-81
2021/09/17 05:00:15;;;;;;;11.98;9.88;;;;;;;21.19;55.23;101664.47;4739588;30;20100;-79
2021/09/17 05:02:40;;;;;;;12.68;10.75;;;;;;;21.21;55.07;101663.59;4739368;30;20048;-80
2021/09/17 05:05:06;;;;;;;12.77;10.55;;;;;;;21.20;55.12;101663.59;4745681;30;20036;-80
2021/09/17 05:07:35;;;;;;;14.75;11.20;;;;;;;21.19;55.28;101670.59;4739336;30;20039;-79
2021/09/17 05:10:01;;;;;;;11.70;10.18;;;;;;;21.17;55.16;101662.75;4770457;30;20043;-80
2021/09/17 05:12:26;;;;;;;13.13;10.60;;;;;;;21.17;55.16;101673.22;4770785;30;20387;-80
2021/09/17 05:14:52;;;;;;;13.57;10.82;;;;;;;21.17;55.42;101669.75;4755742;30;20050;-81
2021/09/17 05:17:17;;;;;;;11.05;9.52;;;;;;;21.20;55.12;101666.22;4757935;30;20510;-79
2021/09/17 05:19:43;;;;;;;13.93;9.82;;;;;;;21.22;54.97;101662.69;4758623;30;20032;-79
2021/09/17 05:22:08;;;;;;;16.67;9.77;;;;;;;21.26;55.13;101664.41;4740353;30;20043;-79
2021/09/17 05:24:34;;;;;;;15.15;8.93;;;;;;;21.34;54.86;101667.81;4725861;30;20088;-79
2021/09/17 05:26:59;;;;;;;17.98;8.90;;;;;;;21.43;54.68;101660.75;4742230;30;20059;-78
2021/09/17 05:29:25;;;;;;;18.02;10.15;;;;;;;21.45;54.72;101667.69;4739937;30;20046;-80
2021/09/17 05:31:50;;;;;;;17.77;11.02;;;;;;;21.43;54.85;101656.38;4740371;30;20071;-80
2021/09/17 05:34:16;;;;;;;25.45;15.48;;;;;;;21.40;55.17;101665.97;4725933;30;20048;-79
2021/09/17 05:36:43;;;;;;;24.02;17.25;;;;;;;21.38;55.11;101660.75;4725351;30;20118;-79
2021/09/17 05:39:09;;;;;;;29.45;18.65;;;;;;;21.37;55.13;101662.50;4739612;30;20020;-80
2021/09/17 05:41:35;;;;;;;30.27;23.17;;;;;;;21.36;54.84;101663.41;4756031;30;20054;-78
2021/09/17 05:44:00;;;;;;;30.50;23.80;;;;;;;21.35;54.87;101655.56;4742056;30;20085;-78
2021/09/17 05:46:26;;;;;;;28.63;21.48;;;;;;;21.32;55.00;101659.09;4756637;30;20046;-79
2021/09/17 05:48:51;;;;;;;31.63;24.38;;;;;;;21.32;54.80;101660.84;4727480;30;20123;-79
2021/09/17 05:51:17;;;;;;;28.60;22.05;;;;;;;21.29;55.08;101658.25;4728509;30;20043;-79
2021/09/17 05:53:42;;;;;;;34.83;26.45;;;;;;;21.28;54.91;101662.63;4714838;30;20035;-79
2021/09/17 05:56:08;;;;;;;36.70;27.80;;;;;;;21.28;54.90;101665.25;4755549;30;20043;-78
2021/09/17 05:58:34;;;;;;;31.05;23.75;;;;;;;21.29;54.94;101663.50;4761457;30;20036;-79
2021/09/17 06:01:00;;;;;;;32.58;24.92;;;;;;;21.29;55.00;101661.72;4760894;30;20502;-79
2021/09/17 06:03:26;;;;;;;34.97;28.00;;;;;;;21.30;54.93;101657.38;4767419;30;20031;-78
2021/09/17 06:05:51;;;;;;;40.03;30.17;;;;;;;21.30;55.24;101663.47;4765975;30;20039;-79
2021/09/17 06:08:17;;;;;;;43.05;32.53;;;;;;;21.32;54.93;101653.84;4797207;30;20031;-79
2021/09/17 06:10:43;;;;;;;32.33;26.30;;;;;;;21.33;54.80;101657.34;4780521;30;20037;-78
2021/09/17 06:13:08;;;;;;;37.92;27.98;;;;;;;21.30;55.15;101654.78;4771870;30;20039;-76
2021/09/17 06:15:34;;;;;;;33.15;24.80;;;;;;;21.30;54.92;101655.63;4766960;30;20043;-78
2021/09/17 06:17:59;;;;;;;37.38;26.55;;;;;;;21.27;55.24;101662.63;4752969;30;20036;-76
2021/09/17 06:20:26;;;;;;;35.97;26.48;;;;;;;21.27;54.97;101658.25;4780911;30;20039;-77
2021/09/17 06:22:54;;;;;;;35.25;25.75;;;;;;;21.24;55.22;101660.06;4763923;30;20127;-76
2021/09/17 06:25:21;;;;;;;34.63;25.73;;;;;;;21.24;55.23;101657.47;4759591;30;20034;-77
2021/09/17 06:27:49;;;;;;;32.75;26.08;;;;;;;21.23;55.22;101666.19;4757172;30;20039;-80
2021/09/17 06:30:16;;;;;;;41.20;27.27;;;;;;;21.23;55.02;101663.56;4757923;30;20153;-79
2021/09/17 06:32:42;;;;;;;36.83;28.33;;;;;;;21.22;55.25;101657.47;4758688;30;20028;-79
2021/09/17 06:35:08;;;;;;;38.50;28.23;;;;;;;21.23;55.09;101669.69;4745285;30;20035;-80
2021/09/17 06:37:34;;;;;;;34.75;26.67;;;;;;;21.23;55.39;101667.06;4746716;30;20151;-79
2021/09/17 06:39:59;;;;;;;33.17;24.88;;;;;;;21.30;55.36;101670.47;4748632;30;20052;-80
2021/09/17 06:42:25;;;;;;;31.67;23.08;;;;;;;21.35;54.95;101668.66;4751254;30;20039;-80
2021/09/17 06:44:51;;;;;;;45.08;31.35;;;;;;;21.14;55.68;101662.81;4749569;30;20391;-81
2021/09/17 06:47:17;;;;;;;50.42;38.10;;;;;;;20.93;56.66;101665.66;4762151;30;20059;-78
2021/09/17 06:49:42;;;;;;;52.92;38.17;;;;;;;20.85;56.73;101660.47;4776330;30;20503;-78
2021/09/17 06:52:08;;;;;;;58.33;40.50;;;;;;;20.78;57.02;101666.66;4760723;30;20032;-78
2021/09/17 06:54:33;;;;;;;59.97;40.35;;;;;;;20.70;57.26;101673.72;4730286;30;20036;-78
2021/09/17 06:56:59;;;;;;;53.05;40.70;;;;;;;20.67;57.34;101679.84;4729875;30;20055;-78
2021/09/17 06:59:25;;;;;;;52.65;39.08;;;;;;;20.62;57.48;101673.81;4756781;30;20138;-80
2021/09/17 07:01:50;;;;;;;56.50;40.70;;;;;;;20.65;57.55;101670.28;4742456;30;20047;-80
2021/09/17 07:04:16;;;;;;;55.63;40.47;;;;;;;20.68;57.35;101675.47;4773969;30;20032;-79
2021/09/17 07:06:41;;;;;;;53.88;39.58;;;;;;;20.74;57.15;101668.44;4775961;30;20036;-80
2021/09/17 07:09:07;;;;;;;50.13;39.20;;;;;;;20.77;57.27;101671.91;4741116;30;20036;-80
2021/09/17 07:11:36;;;;;;;54.35;40.53;;;;;;;20.64;57.58;101672.00;4756037;30;20118;-79
2021/09/17 07:14:02;;;;;;;55.78;41.28;;;;;;;20.66;57.54;101669.38;4741784;30;20032;-80
2021/09/17 07:16:27;;;;;;;56.85;41.40;;;;;;;20.70;57.19;101668.47;4742165;30;20112;-78
2021/09/17 07:18:54;;;;;;;59.92;41.17;;;;;;;20.75;57.25;101675.41;4756392;30;20515;-80
2021/09/17 07:21:19;;;;;;;51.35;38.88;;;;;;;20.81;57.27;101665.75;4741722;30;20040;-80
2021/09/17 07:23:45;;;;;;;59.30;40.88;;;;;;;20.86;56.97;101670.09;4772075;30;20065;-80
2021/09/17 07:26:11;;;;;;;56.47;40.72;;;;;;;21.07;56.15;101666.34;4772614;30;20032;-79
2021/09/17 07:28:36;;;;;;;51.40;38.33;;;;;;;21.23;55.94;101669.69;4727179;30;20031;-81
2021/09/17 07:31:02;;;;;;;42.90;31.35;;;;;;;21.29;55.71;101661.72;4741624;30;20059;-79
2021/09/17 07:33:28;;;;;;;44.08;33.33;;;;;;;21.30;55.51;101666.09;4757259;30;20027;-79
2021/09/17 07:35:53;;;;;;;40.20;29.00;;;;;;;21.29;55.84;101672.19;4773215;30;20062;-79
2021/09/17 07:38:19;;;;;;;44.90;33.22;;;;;;;21.23;56.19;101669.69;4741312;30;20035;-78
2021/09/17 07:40:45;;;;;;;41.60;31.23;;;;;;;21.22;56.26;101672.31;4742860;30;20490;-80
2021/09/17 07:43:12;;;;;;;43.30;30.52;;;;;;;21.19;56.42;101673.22;4758501;30;20024;-80
2021/09/17 07:45:38;;;;;;;40.15;30.60;;;;;;;21.17;56.53;101670.59;4744445;30;20523;-79
2021/09/17 07:48:04;;;;;;;39.80;29.00;;;;;;;21.23;56.32;101674.03;4743130;30;20071;-79
2021/09/17 07:50:30;;;;;;;44.33;33.55;;;;;;;21.14;56.50;101670.66;4755367;30;20043;-78
2021/09/17 07:52:56;;;;;;;47.72;35.83;;;;;;;21.08;56.79;101668.09;4771644;30;20043;-79
2021/09/17 07:55:25;;;;;;;47.00;34.88;;;;;;;21.09;57.26;101671.56;4755417;30;20163;-79
2021/09/17 07:57:52;;;;;;;49.08;34.70;;;;;;;21.06;56.77;101671.63;4772185;30;20109;-79
2021/09/17 08:00:17;;;;;;;43.50;32.72;;;;;;;21.14;56.66;101678.50;4755621;30;20251;-80
2021/09/17 08:02:44;;;;;;;48.88;35.03;;;;;;;21.10;56.85;101671.56;4755656;30;20127;-80
2021/09/17 08:05:11;;;;;;;49.85;36.22;;;;;;;21.06;57.18;101672.47;4755924;30;20031;-79
2021/09/17 08:07:37;;;;;;;45.03;34.28;;;;;;;21.08;57.05;101668.09;4740703;30;20043;-80
2021/09/17 08:10:04;;;;;;;50.70;35.78;;;;;;;21.13;56.82;101683.75;4741737;30;20036;-79
2021/09/17 08:12:29;;;;;;;51.08;36.80;;;;;;;21.20;56.80;101668.84;4756001;30;20483;-78
2021/09/17 08:14:55;;;;;;;47.17;34.95;;;;;;;21.30;56.48;101679.19;4759014;30;20070;-79
2021/09/17 08:17:21;;;;;;;47.03;34.97;;;;;;;21.33;56.69;101678.28;4751723;30;20039;-80
2021/09/17 08:19:46;;;;;;;48.50;34.85;;;;;;;21.40;56.37;101679.94;4777988;30;20081;-79
2021/09/17 08:22:12;;;;;;;46.13;35.33;;;;;;;21.52;55.93;101669.34;4760668;30;20039;-79
2021/09/17 08:24:37;;;;;;;46.50;32.97;;;;;;;21.80;55.46;101673.34;4759324;30;20055;-80
2021/09/17 08:27:03;;;;;;;45.53;32.03;;;;;;;22.06;54.53;101671.22;4745581;30;20035;-80
2021/09/17 08:29:29;;;;;;;45.17;33.08;;;;;;;22.29;54.07;101667.41;4728242;30;20553;-80
2021/09/17 08:31:56;;;;;;;46.35;33.30;;;;;;;22.15;54.21;101676.31;4758017;30;20043;-79
2021/09/17 08:34:22;;;;;;;43.25;32.15;;;;;;;21.92;54.99;101674.03;4773148;30;20486;-80
2021/09/17 08:36:47;;;;;;;42.80;33.72;;;;;;;21.86;55.34;101679.38;4772510;30;20524;-79
2021/09/17 08:39:14;;;;;;;42.55;31.73;;;;;;;21.86;55.21;101682.00;4756533;30;20059;-79
2021/09/17 08:41:43;;;;;;;38.13;28.98;;;;;;;21.88;55.19;101674.97;4757288;30;20036;-80
2021/09/17 08:44:08;;;;;;;35.67;28.70;;;;;;;21.86;55.41;101678.50;4771584;30;20059;-78
2021/09/17 08:46:34;;;;;;;41.60;31.70;;;;;;;21.85;55.42;101685.50;4756871;30;20051;-80
2021/09/17 08:49:02;;;;;;;43.03;30.67;;;;;;;21.89;55.49;101678.47;4757334;30;20031;-79
2021/09/17 08:51:28;;;;;;;40.08;30.15;;;;;;;21.84;55.75;101678.53;4746121;30;20038;-79
2021/09/17 08:53:53;;;;;;;43.13;32.00;;;;;;;21.84;55.65;101675.91;4760596;30;20456;-80
2021/09/17 08:56:19;;;;;;;40.70;30.38;;;;;;;21.75;56.25;101676.03;4759474;30;20098;-80
2021/09/17 08:58:48;;;;;;;36.75;29.05;;;;;;;21.81;55.64;101683.81;4760587;30;20126;-79
2021/09/17 09:01:36;;;;;;;37.05;27.17;;;;;;;21.87;55.62;101682.88;4774984;30;20044;-79
2021/09/17 09:04:04;;;;;;;31.80;24.58;;;;;;;21.88;55.65;101682.81;4743224;30;20036;-80
2021/09/17 09:06:48;;;;;;;36.42;24.60;;;;;;;21.89;55.44;101673.22;4743059;30;20483;-79
2021/09/17 09:09:20;;;;;;;35.20;25.15;;;;;;;21.93;55.65;101680.16;4729332;30;20514;-80
2021/09/17 09:11:50;;;;;;;30.23;24.13;;;;;;;21.92;55.66;101675.78;4756347;30;20107;-80
2021/09/17 09:14:17;;;;;;;33.75;24.50;;;;;;;21.85;55.76;101687.25;4741748;30;20062;-79
2021/09/17 09:16:46;;;;;;;32.78;24.65;;;;;;;21.80;56.29;101687.31;4759221;30;20067;-80
2021/09/17 09:19:20;;;;;;;33.38;24.63;;;;;;;21.78;56.46;101689.09;4760222;30;20032;-78
2021/09/17 09:21:49;;;;;;;34.80;26.02;;;;;;;21.76;56.59;101676.00;4762635;30;20391;-79
2021/09/17 09:24:23;;;;;;;32.08;23.83;;;;;;;21.78;56.59;101681.25;4761566;30;20036;-80
2021/09/17 09:27:18;;;;;;;30.38;21.83;;;;;;;21.79;56.18;101682.97;4746093;30;20032;-80
2021/09/17 09:29:51;;;;;;;25.48;19.75;;;;;;;21.81;56.18;101685.56;4768852;30;20107;-78
2021/09/17 09:32:30;;;;;;;23.23;17.57;;;;;;;21.83;56.08;101683.78;4765098;30;20032;-80
2021/09/17 09:35:15;;;;;;;25.25;16.90;;;;;;;21.86;56.00;101684.63;4764423;30;20028;-79
2021/09/17 09:37:40;;;;;;;19.33;15.00;;;;;;;21.87;55.99;101683.72;4778116;30;20052;-79
2021/09/17 09:40:12;;;;;;;19.38;14.85;;;;;;;21.84;55.76;101689.03;4762583;30;20063;-77
2021/09/17 09:42:45;;;;;;;18.83;14.90;;;;;;;21.83;56.16;101687.28;4762314;30;20116;-79
2021/09/17 09:45:16;;;;;;;20.05;13.45;;;;;;;21.84;55.94;101681.16;4761775;30;20535;-78
2021/09/17 09:47:53;;;;;;;19.30;13.25;;;;;;;21.83;55.84;101682.03;4762962;30;20032;-78
2021/09/17 09:50:24;;;;;;;16.80;11.95;;;;;;;21.81;56.02;101683.81;4748483;30;20063;-79
2021/09/17 09:52:55;;;;;;;14.27;10.60;;;;;;;21.79;55.84;101685.56;4761061;30;20502;-80
2021/09/17 09:55:22;;;;;;;13.85;10.70;;;;;;;21.74;56.20;101685.63;4748306;30;20515;-81
2021/09/17 09:57:48;;;;;;;14.70;10.73;;;;;;;21.72;56.17;101687.41;4764600;30;20039;-80
2021/09/17 10:00:15;;;;;;;14.90;10.43;;;;;;;21.71;56.04;101695.28;4761632;30;20035;-80
2021/09/17 10:02:43;;;;;;;12.55;9.98;;;;;;;21.73;56.08;101683.03;4763832;30;20055;-80
2021/09/17 10:05:12;;;;;;;10.45;8.20;;;;;;;21.75;55.88;101687.41;4762248;30;20030;-80
2021/09/17 10:07:38;;;;;;;10.35;8.63;;;;;;;21.78;55.62;101682.09;4764157;30;20047;-80
2021/09/17 10:10:10;;;;;;;10.68;8.35;;;;;;;21.81;55.88;101682.94;4766583;30;20028;-80
2021/09/17 10:12:52;;;;;;;9.00;7.43;;;;;;;21.81;55.85;101682.94;4767760;30;20454;-80
2021/09/17 10:15:20;;;;;;;10.48;7.38;;;;;;;21.78;55.84;101689.97;4780318;30;20031;-79
2021/09/17 10:17:50;;;;;;;8.32;7.45;;;;;;;21.75;56.15;101690.00;4762859;30;20036;-79
2021/09/17 10:20:17;;;;;;;12.00;7.57;;;;;;;21.74;55.90;101693.50;4762775;30;20114;-80
2021/09/17 10:22:44;;;;;;;8.02;6.88;;;;;;;21.73;56.04;101688.28;4748424;30;20069;-79
2021/09/17 10:25:22;;;;;;;7.70;6.60;;;;;;;21.72;56.30;101684.78;4782166;30;20028;-80
2021/09/17 10:28:17;;;;;;;8.65;6.05;;;;;;;21.74;56.02;101682.16;4786210;30;20119;-82
2021/09/17 10:30:47;;;;;;;7.68;6.10;;;;;;;21.77;55.90;101684.72;4780899;30;20032;-85
2021/09/17 10:33:27;;;;;;;6.97;5.90;;;;;;;21.78;55.90;101684.72;4782674;30;20047;-80
2021/09/17 10:35:56;;;;;;;7.07;6.03;;;;;;;21.83;55.88;101696.91;4775205;30;20072;-78
2021/09/17 10:38:32;;;;;;;8.30;6.10;;;;;;;21.85;55.82;101684.63;4759770;30;20043;-79
2021/09/17 10:41:04;;;;;;;8.48;7.30;;;;;;;21.88;55.71;101688.06;4780064;30;20031;-78
2021/09/17 10:43:37;;;;;;;8.65;7.75;;;;;;;21.89;55.61;101689.81;4764114;30;20062;-80
2021/09/17 10:46:06;;;;;;;8.48;7.68;;;;;;;21.89;55.60;101684.56;4777572;30;20106;-79
2021/09/17 10:48:44;;;;;;;9.68;8.68;;;;;;;21.97;55.57;101685.34;4763406;30;20040;-80
2021/09/17 10:51:45;;;;;;;11.10;8.60;;;;;;;22.03;55.42;101683.50;4777403;30;20031;-80
2021/09/17 10:54:13;;;;;;;9.50;8.50;;;;;;;22.09;55.46;101680.78;4778615;30;20093;-80
2021/09/17 10:56:48;;;;;;;8.85;7.97;;;;;;;22.16;55.17;101683.28;4760248;30;20028;-79
2021/09/17 10:59:24;;;;;;;9.73;8.73;;;;;;;22.23;55.26;101681.47;4757753;30;20480;-80
2021/09/17 11:01:55;;;;;;;9.73;8.82;;;;;;;22.28;54.68;101684.03;4773196;30;20468;-79
2021/09/17 11:04:27;;;;;;;9.23;8.32;;;;;;;22.28;54.82;101682.28;4756718;30;20027;-79
2021/09/17 11:06:55;;;;;;;9.27;8.32;;;;;;;22.32;54.71;101685.69;4773150;30;20450;-78
2021/09/17 11:09:42;;;;;;;9.45;8.55;;;;;;;22.33;55.01;101683.06;4756464;30;20023;-79
2021/09/17 11:12:19;;;;;;;8.88;8.02;;;;;;;22.33;54.88;101677.81;4755646;30;20031;-77
2021/09/17 11:14:59;;;;;;;9.07;8.23;;;;;;;22.33;55.10;101688.31;4756047;30;20043;-76
2021/09/17 11:18:01;;;;;;;9.13;8.23;;;;;;;22.34;54.96;101683.91;4756253;30;20031;-78